Time;durP1;ratioP1;P1;durP2;ratioP2;P2;SDS_P1;SDS_P2;PMS_P1;PMS_P2;Temp;Humidity;BMP_temperature;BMP_pressure;BME280_temperature;BME280_humidity;BME280_pressure;Samples;Min_cycle;Max_cycle;Signal;HPM_P1;HPM_P2
2021/08/09 00:01:24;;;;;;;2.30;2.07;;;21.90;52.60;;;;;;5020717;28;20668;-46
2021/08/09 00:03:50;;;;;;;3.83;2.27;;;21.80;52.70;;;;;;5022374;28;20201;-46
2021/08/09 00:06:16;;;;;;;3.50;2.30;;;21.80;52.70;;;;;;5022595;28;20197;-45
2021/08/09 00:08:41;;;;;;;3.23;1.97;;;21.70;53.00;;;;;;5027098;28;20256;-45
2021/08/09 00:11:07;;;;;;;2.70;2.30;;;21.60;53.20;;;;;;5024583;28;20228;-47
2021/08/09 00:13:32;;;;;;;2.50;2.20;;;21.50;53.50;;;;;;5025811;28;20255;-45
2021/08/09 00:15:58;;;;;;;2.20;1.93;;;21.50;54.00;;;;;;5029140;28;20644;-45
2021/08/09 00:18:27;;;;;;;3.83;1.77;;;21.40;54.00;;;;;;5026110;28;20224;-50
2021/08/09 00:20:53;;;;;;;3.70;2.10;;;21.10;54.50;;;;;;5022476;28;20189;-47
2021/08/09 00:23:20;;;;;;;2.20;1.97;;;21.10;54.90;;;;;;5027779;28;20432;-48
2021/08/09 00:25:46;;;;;;;4.17;2.10;;;21.10;54.40;;;;;;5026295;28;20467;-48
2021/08/09 00:28:11;;;;;;;2.87;1.90;;;21.10;54.40;;;;;;5023736;28;20566;-45
2021/08/09 00:30:37;;;;;;;1.80;1.70;;;21.10;54.40;;;;;;5025989;28;20729;-45
2021/08/09 00:33:02;;;;;;;1.87;1.77;;;21.10;54.10;;;;;;5023815;28;20205;-46
2021/08/09 00:35:28;;;;;;;2.27;2.07;;;21.20;54.00;;;;;;5026774;28;20189;-45
2021/08/09 00:37:54;;;;;;;4.30;2.20;;;21.30;54.30;;;;;;5023621;28;20248;-46
2021/08/09 00:40:19;;;;;;;4.70;2.00;;;21.20;54.00;;;;;;5026288;28;20185;-47
2021/08/09 00:42:45;;;;;;;2.80;1.90;;;21.30;54.10;;;;;;5027002;28;20675;-45
2021/08/09 00:45:11;;;;;;;2.97;1.80;;;21.30;53.60;;;;;;5028596;28;20244;-46
2021/08/09 00:47:37;;;;;;;3.63;2.50;;;21.30;53.60;;;;;;5021679;28;20209;-46
2021/08/09 00:50:03;;;;;;;2.40;1.60;;;21.20;53.80;;;;;;5025775;28;20450;-45
2021/08/09 00:52:29;;;;;;;4.70;2.07;;;21.20;54.40;;;;;;5025486;28;20189;-45
2021/08/09 00:54:55;;;;;;;3.57;2.10;;;21.00;54.40;;;;;;5024940;28;20432;-45
2021/08/09 00:57:20;;;;;;;3.47;2.13;;;21.00;54.80;;;;;;5022490;28;20562;-48
2021/08/09 00:59:46;;;;;;;2.57;2.33;;;21.00;55.10;;;;;;5024007;28;20275;-46
2021/08/09 01:02:12;;;;;;;2.40;2.20;;;21.00;54.90;;;;;;5023041;28;20197;-44
2021/08/09 01:04:38;;;;;;;1.93;1.67;;;21.00;54.70;;;;;;5025022;28;20498;-46
2021/08/09 01:07:05;;;;;;;2.80;2.57;;;21.00;54.60;;;;;;5026643;28;20689;-46
2021/08/09 01:09:43;;;;;;;2.27;2.10;;;21.00;54.50;;;;;;5026682;28;20561;-46
2021/08/09 01:12:23;;;;;;;5.70;2.10;;;20.90;54.30;;;;;;5023331;28;20801;-50
2021/08/09 01:14:52;;;;;;;4.33;2.07;;;20.90;54.20;;;;;;5022999;28;20447;-46
2021/08/09 01:17:21;;;;;;;2.97;2.53;;;20.90;54.50;;;;;;5024183;28;20955;-46
2021/08/09 01:20:11;;;;;;;4.30;2.03;;;20.80;55.00;;;;;;5025800;28;20444;-46
2021/08/09 01:22:50;;;;;;;3.97;2.00;;;20.80;55.30;;;;;;5023046;28;20444;-47
2021/08/09 01:25:35;;;;;;;2.10;1.90;;;20.60;55.40;;;;;;5024045;28;20464;-50
2021/08/09 01:28:02;;;;;;;2.23;2.03;;;20.60;55.80;;;;;;5022825;28;20843;-49
2021/08/09 01:30:28;;;;;;;2.50;2.07;;;20.60;55.90;;;;;;5023311;28;20458;-44
2021/08/09 01:32:55;;;;;;;2.47;2.27;;;20.60;55.70;;;;;;5022440;28;20527;-48
2021/08/09 01:35:24;;;;;;;2.33;2.13;;;20.60;55.40;;;;;;5023874;28;20478;-45
2021/08/09 01:37:53;;;;;;;3.90;2.47;;;20.60;55.10;;;;;;5032768;28;20477;-51
2021/08/09 01:40:21;;;;;;;2.60;2.40;;;20.60;55.30;;;;;;5026896;28;20427;-46
2021/08/09 01:42:48;;;;;;;3.73;2.03;;;20.60;55.60;;;;;;5027075;28;20485;-45
2021/08/09 01:45:15;;;;;;;3.13;2.00;;;20.60;55.80;;;;;;5023587;28;20966;-48
2021/08/09 01:47:41;;;;;;;8.27;2.30;;;20.50;55.60;;;;;;5023415;28;20565;-44
2021/08/09 01:50:10;;;;;;;3.80;2.10;;;20.50;55.30;;;;;;5026324;28;20483;-49
2021/08/09 01:52:38;;;;;;;4.57;2.13;;;20.50;55.00;;;;;;5023051;28;20440;-45
2021/08/09 01:55:05;;;;;;;2.20;2.00;;;20.50;55.10;;;;;;5022662;28;20543;-45
2021/08/09 01:57:31;;;;;;;2.40;2.20;;;20.40;55.30;;;;;;5022430;28;20514;-45
2021/08/09 01:59:57;;;;;;;2.70;1.80;;;20.40;55.40;;;;;;5024813;28;20444;-48
2021/08/09 02:02:32;;;;;;;2.60;1.97;;;20.40;55.60;;;;;;5024863;28;20881;-46
2021/08/09 02:05:25;;;;;;;2.80;2.53;;;20.40;55.30;;;;;;5024059;28;20193;-45
2021/08/09 02:07:52;;;;;;;2.27;1.77;;;20.40;54.80;;;;;;5020970;28;21229;-45
2021/08/09 02:10:22;;;;;;;2.33;2.17;;;20.40;55.00;;;;;;5023228;28;20539;-46
2021/08/09 02:13:06;;;;;;;3.20;2.30;;;20.50;55.10;;;;;;5022255;28;20536;-47
2021/08/09 02:15:46;;;;;;;3.20;2.27;;;20.40;55.60;;;;;;5022126;28;20444;-46
2021/08/09 02:18:45;;;;;;;2.93;2.10;;;20.40;55.50;;;;;;5022306;28;20634;-46
2021/08/09 02:21:18;;;;;;;2.30;2.10;;;20.40;56.20;;;;;;5009317;28;20999;-45
2021/08/09 02:23:59;;;;;;;2.67;2.37;;;20.40;55.80;;;;;;5025029;28;20444;-45
2021/08/09 02:26:46;;;;;;;4.27;2.53;;;20.30;55.40;;;;;;5021149;28;20447;-46
2021/08/09 02:29:14;;;;;;;2.60;2.40;;;20.30;55.50;;;;;;5022264;28;20522;-45
2021/08/09 02:31:42;;;;;;;3.43;2.30;;;20.30;55.70;;;;;;5023528;28;20468;-45
2021/08/09 02:34:14;;;;;;;3.77;2.13;;;20.30;55.20;;;;;;5026309;28;21045;-48
2021/08/09 02:36:42;;;;;;;2.67;2.00;;;20.20;55.50;;;;;;5020589;28;20561;-47
2021/08/09 02:39:08;;;;;;;2.87;2.13;;;20.20;55.60;;;;;;5023352;28;20444;-45
2021/08/09 02:41:34;;;;;;;2.40;2.20;;;20.20;55.80;;;;;;5025101;28;20451;-44
2021/08/09 02:44:00;;;;;;;3.40;2.00;;;20.20;55.90;;;;;;5021913;28;20432;-44
2021/08/09 02:46:27;;;;;;;2.40;2.20;;;20.20;56.20;;;;;;5022522;28;20240;-45
2021/08/09 02:48:53;;;;;;;2.83;2.40;;;20.20;56.10;;;;;;5022235;28;20595;-45
2021/08/09 02:51:20;;;;;;;3.60;2.17;;;20.20;55.90;;;;;;5022924;28;20560;-45
2021/08/09 02:53:47;;;;;;;4.10;2.30;;;20.20;55.50;;;;;;5020835;28;20452;-46
2021/08/09 02:56:13;;;;;;;4.80;2.00;;;20.20;55.40;;;;;;5021960;28;20480;-46
2021/08/09 02:58:39;;;;;;;2.13;2.03;;;20.20;55.40;;;;;;5021548;28;20507;-46
2021/08/09 03:01:07;;;;;;;2.30;2.10;;;20.10;55.40;;;;;;5021852;28;20448;-45
2021/08/09 03:03:35;;;;;;;2.80;2.00;;;20.10;55.70;;;;;;5023586;28;20204;-46
2021/08/09 03:06:01;;;;;;;2.40;2.20;;;20.10;56.30;;;;;;5023406;28;20597;-45
2021/08/09 03:08:28;;;;;;;3.40;2.20;;;20.00;56.30;;;;;;5021344;28;20492;-45
2021/08/09 03:10:54;;;;;;;3.50;2.30;;;19.90;56.40;;;;;;5023404;28;20452;-46
2021/08/09 03:13:24;;;;;;;2.80;2.13;;;19.90;56.60;;;;;;5022632;28;20460;-46
2021/08/09 03:15:51;;;;;;;2.27;2.17;;;20.00;56.70;;;;;;5025873;28;20802;-45
2021/08/09 03:18:17;;;;;;;3.70;2.43;;;20.00;56.40;;;;;;5022020;28;20467;-45
2021/08/09 03:20:43;;;;;;;3.27;2.50;;;20.00;56.00;;;;;;5022778;28;20436;-46
2021/08/09 03:23:08;;;;;;;9.83;2.60;;;19.90;56.40;;;;;;5022261;28;21280;-46
2021/08/09 03:25:34;;;;;;;2.10;1.90;;;19.90;56.30;;;;;;5024025;28;21765;-44
2021/08/09 03:28:02;;;;;;;2.70;2.10;;;19.90;56.40;;;;;;5015524;28;21016;-45
2021/08/09 03:30:28;;;;;;;2.77;2.57;;;20.00;56.10;;;;;;5027634;28;20940;-47
2021/08/09 03:32:54;;;;;;;2.83;2.10;;;19.90;56.30;;;;;;5020599;28;20452;-47
2021/08/09 03:35:20;;;;;;;3.13;2.50;;;19.80;56.50;;;;;;5023334;28;20609;-48
2021/08/09 03:37:46;;;;;;;3.40;2.27;;;19.80;56.40;;;;;;5021163;28;20451;-46
2021/08/09 03:40:12;;;;;;;2.80;2.40;;;19.80;56.40;;;;;;5022214;28;20867;-45
2021/08/09 03:42:38;;;;;;;3.37;2.57;;;19.80;56.50;;;;;;5026452;28;20185;-46
2021/08/09 03:45:04;;;;;;;2.63;2.40;;;19.80;56.70;;;;;;5034803;28;20523;-46
2021/08/09 03:47:30;;;;;;;2.87;2.37;;;19.80;56.70;;;;;;5027718;28;20248;-45
2021/08/09 03:49:55;;;;;;;3.50;2.40;;;19.80;56.40;;;;;;5025886;28;20871;-44
2021/08/09 03:52:21;;;;;;;3.23;2.40;;;19.50;57.10;;;;;;5033579;28;20204;-46
2021/08/09 03:54:47;;;;;;;2.67;2.30;;;19.40;57.70;;;;;;5026870;28;20284;-46
2021/08/09 03:57:12;;;;;;;2.80;2.60;;;19.20;58.10;;;;;;5024623;28;20197;-45
2021/08/09 03:59:38;;;;;;;3.97;2.50;;;19.30;58.00;;;;;;5028951;28;20537;-46
2021/08/09 04:02:03;;;;;;;3.47;2.67;;;19.30;58.20;;;;;;5024900;28;20980;-44
2021/08/09 04:04:29;;;;;;;4.83;2.40;;;19.30;57.80;;;;;;5025916;28;20185;-47
2021/08/09 04:06:55;;;;;;;3.83;2.13;;;19.20;58.30;;;;;;5027458;28;20194;-46
2021/08/09 04:09:20;;;;;;;2.53;2.27;;;19.20;58.00;;;;;;5024565;28;20281;-48
2021/08/09 04:11:46;;;;;;;3.23;2.50;;;19.30;58.10;;;;;;5027411;28;20193;-46
2021/08/09 04:14:12;;;;;;;2.30;2.10;;;19.20;58.40;;;;;;5025097;28;20584;-45
2021/08/09 04:16:37;;;;;;;4.63;2.30;;;19.30;58.60;;;;;;5025728;28;20526;-47
2021/08/09 04:19:03;;;;;;;9.20;1.93;;;19.30;58.20;;;;;;5026069;28;20352;-46
2021/08/09 04:21:28;;;;;;;2.43;1.97;;;19.00;58.20;;;;;;5027908;28;20901;-50
2021/08/09 04:23:54;;;;;;;2.70;2.40;;;18.80;58.90;;;;;;5029151;28;20189;-46
2021/08/09 04:26:20;;;;;;;3.47;2.30;;;18.80;59.50;;;;;;5025150;28;20255;-46
2021/08/09 04:28:46;;;;;;;2.60;2.40;;;18.90;59.50;;;;;;5026344;28;20705;-45
2021/08/09 04:31:13;;;;;;;2.87;2.60;;;18.60;59.60;;;;;;5024134;28;20235;-46
2021/08/09 04:33:43;;;;;;;2.33;2.13;;;18.70;59.70;;;;;;5028665;28;20493;-48
2021/08/09 04:36:09;;;;;;;2.40;2.30;;;18.70;59.70;;;;;;5025477;28;21061;-47
2021/08/09 04:38:34;;;;;;;2.33;2.13;;;18.70;59.40;;;;;;5023103;28;20436;-49
2021/08/09 04:41:03;;;;;;;2.97;2.33;;;18.60;59.90;;;;;;5024445;28;20197;-50
2021/08/09 04:43:29;;;;;;;2.63;2.30;;;18.30;60.00;;;;;;5026672;28;20205;-49
2021/08/09 04:45:54;;;;;;;3.00;2.27;;;17.90;62.20;;;;;;5024572;28;20444;-48
2021/08/09 04:48:20;;;;;;;2.20;2.10;;;18.10;62.90;;;;;;5023656;28;20367;-47
2021/08/09 04:50:45;;;;;;;2.60;2.40;;;18.40;61.40;;;;;;5025372;28;20268;-45
2021/08/09 04:53:12;;;;;;;2.43;2.33;;;18.70;60.00;;;;;;5029504;28;20196;-45
2021/08/09 04:55:37;;;;;;;2.80;2.10;;;18.90;59.30;;;;;;5024352;28;20197;-46
2021/08/09 04:58:04;;;;;;;2.83;2.63;;;18.80;59.30;;;;;;5021591;28;20920;-44
2021/08/09 05:00:30;;;;;;;3.50;2.43;;;18.90;59.70;;;;;;5023378;28;20205;-44
2021/08/09 05:02:55;;;;;;;5.10;2.20;;;19.10;59.00;;;;;;5023939;28;20452;-44
2021/08/09 05:05:21;;;;;;;2.60;2.40;;;19.20;58.60;;;;;;5026004;28;20216;-49
2021/08/09 05:07:47;;;;;;;3.10;2.13;;;19.40;58.40;;;;;;5023555;28;20300;-47
2021/08/09 05:10:12;;;;;;;4.30;3.17;;;19.40;58.20;;;;;;5023930;28;20657;-50
2021/08/09 05:12:38;;;;;;;1.80;1.70;;;19.50;57.80;;;;;;5024228;28;20653;-45
2021/08/09 05:15:05;;;;;;;4.73;2.30;;;19.50;57.70;;;;;;5025299;28;20201;-45
2021/08/09 05:17:32;;;;;;;5.40;1.97;;;19.50;59.70;;;;;;5024141;28;20244;-45
2021/08/09 05:19:58;;;;;;;1.70;1.60;;;19.60;58.30;;;;;;5024667;28;20440;-47
2021/08/09 05:22:24;;;;;;;5.53;2.30;;;19.80;57.80;;;;;;5021852;28;20775;-45
2021/08/09 05:24:49;;;;;;;2.10;1.90;;;20.00;57.00;;;;;;5025649;28;20216;-47
2021/08/09 05:27:15;;;;;;;2.80;2.40;;;20.10;56.40;;;;;;5023448;28;20224;-51
2021/08/09 05:29:40;;;;;;;4.93;2.50;;;20.20;55.80;;;;;;5025893;28;20201;-45
2021/08/09 05:32:06;;;;;;;3.07;1.80;;;20.30;55.60;;;;;;5025088;28;20193;-45
2021/08/09 05:34:32;;;;;;;2.43;2.23;;;20.20;56.30;;;;;;5024607;28;20190;-47
2021/08/09 05:36:58;;;;;;;3.83;2.20;;;20.40;55.90;;;;;;5030414;28;20553;-45
2021/08/09 05:39:23;;;;;;;2.37;2.17;;;20.30;55.40;;;;;;5024361;28;20189;-47
2021/08/09 05:41:49;;;;;;;2.47;2.03;;;19.90;55.60;;;;;;5024781;28;20205;-47
2021/08/09 05:44:15;;;;;;;3.27;2.10;;;19.70;56.90;;;;;;5026984;28;20598;-45
2021/08/09 05:46:41;;;;;;;2.13;2.03;;;19.70;57.00;;;;;;5023919;28;20475;-45
2021/08/09 05:49:06;;;;;;;2.17;1.97;;;19.60;57.20;;;;;;5023362;28;20659;-44
2021/08/09 05:51:38;;;;;;;7.30;2.40;;;19.60;57.10;;;;;;5025266;28;20193;-45
2021/08/09 05:54:03;;;;;;;3.40;2.07;;;19.60;57.20;;;;;;5024945;28;20258;-45
2021/08/09 05:56:29;;;;;;;1.93;1.83;;;19.70;57.00;;;;;;5022699;28;20475;-46
2021/08/09 05:58:54;;;;;;;2.80;2.07;;;19.80;56.80;;;;;;5031916;28;20204;-47
2021/08/09 06:01:20;;;;;;;2.50;2.30;;;19.80;56.70;;;;;;5028260;28;20243;-45
2021/08/09 06:03:45;;;;;;;2.73;2.20;;;19.80;56.90;;;;;;5030937;28;20204;-45
2021/08/09 06:06:18;;;;;;;3.43;2.47;;;20.10;56.60;;;;;;5030497;28;20667;-46
2021/08/09 06:08:45;;;;;;;3.23;2.07;;;20.10;56.50;;;;;;5031306;28;20589;-45
2021/08/09 06:11:10;;;;;;;2.13;2.03;;;19.90;57.00;;;;;;5030926;28;20432;-45
2021/08/09 06:13:36;;;;;;;2.00;1.90;;;20.00;56.80;;;;;;5031017;28;20974;-44
2021/08/09 06:16:02;;;;;;;5.47;2.40;;;20.20;56.60;;;;;;5029779;28;20921;-45
2021/08/09 06:18:27;;;;;;;3.50;1.50;;;20.50;56.00;;;;;;5030610;28;20247;-44
2021/08/09 06:20:53;;;;;;;3.27;2.03;;;20.60;55.40;;;;;;5031681;28;20255;-44
2021/08/09 06:23:18;;;;;;;3.03;2.00;;;20.70;55.40;;;;;;5034031;28;20204;-46
2021/08/09 06:25:44;;;;;;;7.73;2.23;;;20.90;55.10;;;;;;5035044;28;20271;-46
2021/08/09 06:28:09;;;;;;;1.60;1.50;;;20.90;54.90;;;;;;5029091;28;20235;-47
2021/08/09 06:30:35;;;;;;;1.77;1.67;;;21.00;54.80;;;;;;5029801;28;20201;-44
2021/08/09 06:33:01;;;;;;;2.30;2.07;;;21.00;54.80;;;;;;5031500;28;20672;-45
2021/08/09 06:35:26;;;;;;;3.00;2.33;;;21.00;55.20;;;;;;5031435;28;20197;-45
2021/08/09 06:37:52;;;;;;;2.07;1.77;;;21.00;55.30;;;;;;5029356;28;20194;-46
2021/08/09 06:40:17;;;;;;;4.50;2.37;;;20.90;55.10;;;;;;5030826;28;20197;-45
2021/08/09 06:42:43;;;;;;;3.80;1.97;;;20.70;55.60;;;;;;5031596;28;20228;-47
2021/08/09 06:45:09;;;;;;;4.50;1.97;;;20.70;55.60;;;;;;5029876;28;20229;-45
2021/08/09 06:47:35;;;;;;;1.90;1.60;;;20.80;55.70;;;;;;5030676;28;20267;-45
2021/08/09 06:50:00;;;;;;;4.53;1.73;;;21.00;56.40;;;;;;5030442;28;20935;-47
2021/08/09 06:52:26;;;;;;;5.80;1.80;;;21.30;55.70;;;;;;5030798;28;20197;-47
2021/08/09 06:54:57;;;;;;;2.37;1.43;;;21.70;54.90;;;;;;5031226;28;20258;-49
2021/08/09 06:57:22;;;;;;;5.10;1.50;;;21.80;54.00;;;;;;5030356;28;20230;-46
2021/08/09 06:59:48;;;;;;;3.10;1.60;;;21.90;53.20;;;;;;5031191;28;20483;-46
2021/08/09 07:02:13;;;;;;;8.30;1.80;;;22.00;53.00;;;;;;5030662;28;20204;-51
2021/08/09 07:04:39;;;;;;;4.50;1.90;;;22.10;53.00;;;;;;5030777;28;20244;-50
2021/08/09 07:07:04;;;;;;;4.13;1.87;;;22.40;53.70;;;;;;5030527;28;20661;-46
2021/08/09 07:09:30;;;;;;;2.00;1.70;;;22.40;52.90;;;;;;5031871;28;20194;-47
2021/08/09 07:11:56;;;;;;;1.77;1.67;;;22.60;52.60;;;;;;5028979;28;20189;-46
2021/08/09 07:14:22;;;;;;;4.83;2.03;;;22.90;52.00;;;;;;5030151;28;20200;-49
2021/08/09 07:16:50;;;;;;;2.20;1.40;;;22.90;51.60;;;;;;5028611;28;20278;-51
2021/08/09 07:19:15;;;;;;;1.63;1.40;;;23.00;51.30;;;;;;5023638;28;20476;-48
2021/08/09 07:21:41;;;;;;;2.20;1.70;;;22.90;51.30;;;;;;5030113;28;20443;-51
2021/08/09 07:24:06;;;;;;;1.43;1.33;;;23.00;52.40;;;;;;5031478;28;20641;-50
2021/08/09 07:26:32;;;;;;;1.37;1.27;;;23.20;51.70;;;;;;5029741;28;20938;-46
2021/08/09 07:28:59;;;;;;;2.97;2.13;;;23.40;50.00;;;;;;5031398;28;20225;-47
2021/08/09 07:31:25;;;;;;;1.40;1.30;;;23.60;49.70;;;;;;5030700;28;20450;-48
2021/08/09 07:33:51;;;;;;;1.80;1.53;;;23.70;49.00;;;;;;5031699;28;20519;-46
2021/08/09 07:36:17;;;;;;;3.33;1.60;;;23.90;49.50;;;;;;5030191;28;20704;-46
2021/08/09 07:38:42;;;;;;;2.37;1.33;;;24.20;49.30;;;;;;5031486;28;20653;-48
2021/08/09 07:41:09;;;;;;;2.83;1.57;;;24.50;49.00;;;;;;5029038;28;20436;-46
2021/08/09 07:43:35;;;;;;;1.20;1.10;;;24.60;47.60;;;;;;5031295;28;20464;-47
2021/08/09 07:46:01;;;;;;;2.43;1.70;;;24.80;47.10;;;;;;5031028;28;20471;-49
2021/08/09 07:48:26;;;;;;;4.13;1.50;;;24.80;46.90;;;;;;5030024;28;20229;-49
2021/08/09 07:50:52;;;;;;;2.37;1.77;;;24.70;46.20;;;;;;5018452;28;20198;-47
2021/08/09 07:53:18;;;;;;;1.90;1.27;;;24.80;46.30;;;;;;5029711;28;20202;-46
2021/08/09 07:55:43;;;;;;;3.93;1.50;;;24.40;46.10;;;;;;5030949;28;20201;-46
2021/08/09 07:58:09;;;;;;;2.30;1.50;;;24.50;46.60;;;;;;5030176;28;20968;-50
2021/08/09 08:00:34;;;;;;;1.57;1.47;;;24.80;47.00;;;;;;5030688;28;20190;-45
2021/08/09 08:03:04;;;;;;;2.27;1.87;;;25.00;47.00;;;;;;5020313;28;20198;-47
2021/08/09 08:05:30;;;;;;;3.60;1.50;;;24.70;47.10;;;;;;5019754;28;20653;-49
2021/08/09 08:07:55;;;;;;;2.30;1.17;;;24.80;46.70;;;;;;5024931;28;20526;-47
2021/08/09 08:10:21;;;;;;;1.90;1.30;;;25.10;46.50;;;;;;5026732;28;20199;-47
2021/08/09 08:12:47;;;;;;;2.63;1.90;;;25.40;45.90;;;;;;5029216;28;20186;-47
2021/08/09 08:15:12;;;;;;;2.83;1.57;;;25.40;45.30;;;;;;5030298;28;20193;-48
2021/08/09 08:17:38;;;;;;;3.10;1.73;;;25.40;46.10;;;;;;5029122;28;20225;-47
2021/08/09 08:20:05;;;;;;;2.70;1.20;;;25.50;45.60;;;;;;5042309;28;20205;-49
2021/08/09 08:22:30;;;;;;;3.10;1.83;;;25.30;44.50;;;;;;5027162;28;20200;-47
2021/08/09 08:24:56;;;;;;;1.40;1.30;;;25.40;44.80;;;;;;5028419;28;20432;-52
2021/08/09 08:27:22;;;;;;;1.47;1.30;;;25.50;45.70;;;;;;5027991;28;20511;-47
2021/08/09 08:29:47;;;;;;;1.60;1.33;;;25.90;45.00;;;;;;5031545;28;20204;-47
2021/08/09 08:32:13;;;;;;;2.27;1.60;;;26.10;44.10;;;;;;5032487;28;20205;-49
2021/08/09 08:34:38;;;;;;;1.97;1.50;;;26.30;43.50;;;;;;5031362;28;21293;-47
2021/08/09 08:37:04;;;;;;;4.27;1.60;;;26.50;43.20;;;;;;5030854;28;20665;-47
2021/08/09 08:39:29;;;;;;;2.03;1.30;;;26.60;42.70;;;;;;5023617;28;20496;-46
2021/08/09 08:41:56;;;;;;;1.97;1.30;;;26.70;42.70;;;;;;5030762;28;20189;-48
2021/08/09 08:44:22;;;;;;;1.87;1.17;;;26.70;42.30;;;;;;5033340;28;20185;-48
2021/08/09 08:46:48;;;;;;;2.30;1.37;;;26.80;41.60;;;;;;5032955;28;20432;-46
2021/08/09 08:49:17;;;;;;;1.70;1.00;;;26.90;42.00;;;;;;5031428;28;21376;-48
2021/08/09 08:51:46;;;;;;;1.37;1.27;;;27.00;42.20;;;;;;5031971;28;20811;-49
2021/08/09 08:54:12;;;;;;;1.60;1.30;;;27.10;42.10;;;;;;5031956;28;20535;-47
2021/08/09 08:56:40;;;;;;;1.93;1.17;;;27.20;41.60;;;;;;5034478;28;20458;-46
2021/08/09 08:59:07;;;;;;;1.90;1.53;;;27.30;41.70;;;;;;5033345;28;20486;-50
2021/08/09 09:01:35;;;;;;;1.47;1.10;;;27.30;41.30;;;;;;5040130;28;20424;-47
2021/08/09 09:04:18;;;;;;;2.60;1.23;;;27.30;40.30;;;;;;5031553;28;20429;-47
2021/08/09 09:06:43;;;;;;;1.23;1.10;;;27.40;39.70;;;;;;5031600;28;20498;-48
2021/08/09 09:09:20;;;;;;;2.53;1.23;;;27.60;39.50;;;;;;5032546;28;20483;-47
2021/08/09 09:11:45;;;;;;;3.90;1.37;;;27.80;39.80;;;;;;5032642;28;20242;-46
2021/08/09 09:14:11;;;;;;;1.30;1.20;;;27.70;37.60;;;;;;5035871;28;20431;-46
2021/08/09 09:16:47;;;;;;;2.30;1.40;;;27.70;38.10;;;;;;5030928;28;20634;-47
2021/08/09 09:19:33;;;;;;;4.50;1.40;;;27.80;38.60;;;;;;5041595;28;20236;-46
2021/08/09 09:22:05;;;;;;;1.90;1.30;;;27.70;39.00;;;;;;5031350;28;20475;-47
2021/08/09 09:24:32;;;;;;;1.83;1.27;;;27.40;38.90;;;;;;5031248;28;20447;-47
2021/08/09 09:27:02;;;;;;;2.53;1.40;;;27.20;40.30;;;;;;5030550;28;20472;-47
2021/08/09 09:29:34;;;;;;;1.83;1.57;;;27.60;40.70;;;;;;5031033;28;20549;-49
2021/08/09 09:32:16;;;;;;;1.63;1.33;;;27.80;39.70;;;;;;5030042;28;20847;-46
2021/08/09 09:34:49;;;;;;;2.30;1.73;;;28.00;39.40;;;;;;5030447;28;20448;-47
2021/08/09 09:37:49;;;;;;;1.87;1.37;;;28.10;39.40;;;;;;5030698;28;20456;-48
2021/08/09 09:40:20;;;;;;;1.57;1.37;;;28.20;39.30;;;;;;5014481;28;20461;-47
2021/08/09 09:42:47;;;;;;;1.63;1.30;;;28.20;38.30;;;;;;5027064;28;20507;-51
2021/08/09 09:45:21;;;;;;;2.13;1.50;;;28.10;39.40;;;;;;5031222;28;20429;-47
2021/08/09 09:48:07;;;;;;;1.40;1.20;;;28.10;39.10;;;;;;5030243;28;20502;-51
2021/08/09 09:50:35;;;;;;;3.77;1.30;;;28.40;38.90;;;;;;5031371;28;20459;-51
2021/08/09 09:53:19;;;;;;;2.47;1.30;;;28.40;38.00;;;;;;5031220;28;20444;-50
2021/08/09 09:55:50;;;;;;;1.10;1.00;;;28.60;38.20;;;;;;5022296;28;20497;-51
2021/08/09 09:58:19;;;;;;;3.70;1.30;;;28.70;38.40;;;;;;5024911;28;20818;-48
2021/08/09 10:00:46;;;;;;;4.67;1.20;;;28.70;38.60;;;;;;5023412;28;20927;-47
2021/08/09 10:03:12;;;;;;;1.83;0.90;;;28.90;38.20;;;;;;5030629;28;20471;-50
2021/08/09 10:05:40;;;;;;;2.53;1.10;;;28.90;36.30;;;;;;5030528;28;20558;-49
2021/08/09 10:08:13;;;;;;;2.10;1.20;;;28.90;37.00;;;;;;5029764;28;21060;-51
2021/08/09 10:10:41;;;;;;;1.30;1.13;;;28.90;36.30;;;;;;5030274;28;20493;-52
2021/08/09 10:13:07;;;;;;;2.00;1.50;;;28.90;36.90;;;;;;5023953;28;20443;-48
2021/08/09 10:15:33;;;;;;;2.20;1.00;;;29.10;37.90;;;;;;5030303;28;20937;-49
2021/08/09 10:17:59;;;;;;;1.47;1.37;;;29.40;37.80;;;;;;5028479;28;20475;-51
2021/08/09 10:20:25;;;;;;;3.80;1.40;;;29.60;36.40;;;;;;5033132;28;20552;-48
2021/08/09 10:22:59;;;;;;;3.67;1.13;;;29.60;35.40;;;;;;5031439;28;20439;-48
2021/08/09 10:25:50;;;;;;;2.33;1.13;;;29.80;35.90;;;;;;5029335;28;20198;-52
2021/08/09 10:28:18;;;;;;;1.90;1.13;;;29.90;35.10;;;;;;5027907;28;20495;-49
2021/08/09 10:30:44;;;;;;;1.80;1.07;;;30.00;33.70;;;;;;5031403;28;20448;-48
2021/08/09 10:33:11;;;;;;;1.17;1.03;;;30.10;34.70;;;;;;5030608;28;20453;-52
2021/08/09 10:35:40;;;;;;;2.03;1.23;;;30.20;34.20;;;;;;5030671;28;20203;-51
2021/08/09 10:38:17;;;;;;;1.20;1.10;;;30.20;34.00;;;;;;5030366;28;20447;-51
2021/08/09 10:40:44;;;;;;;1.23;1.00;;;30.10;33.40;;;;;;5029368;28;20483;-48
2021/08/09 10:43:10;;;;;;;2.80;1.10;;;30.10;33.70;;;;;;5024498;28;20475;-52
2021/08/09 10:45:48;;;;;;;1.93;1.30;;;30.10;34.00;;;;;;5022581;28;20493;-50
2021/08/09 10:48:34;;;;;;;1.90;1.13;;;29.90;33.60;;;;;;5030713;28;20537;-49
2021/08/09 10:51:00;;;;;;;2.53;1.10;;;29.70;33.90;;;;;;5024832;28;20443;-51
2021/08/09 10:53:25;;;;;;;2.83;1.60;;;29.70;35.00;;;;;;5028432;28;20537;-51
2021/08/09 10:55:58;;;;;;;1.63;1.33;;;29.70;33.50;;;;;;5028752;28;20215;-51
2021/08/09 10:58:51;;;;;;;2.30;1.00;;;29.60;33.10;;;;;;5020878;28;20624;-47
2021/08/09 11:01:19;;;;;;;1.27;1.17;;;29.80;35.00;;;;;;5021471;28;20474;-48
2021/08/09 11:04:14;;;;;;;1.97;1.37;;;30.20;33.90;;;;;;5030431;28;20432;-46
2021/08/09 11:06:53;;;;;;;2.73;1.20;;;30.50;34.10;;;;;;5031112;28;20444;-50
2021/08/09 11:09:35;;;;;;;2.00;1.10;;;30.70;33.50;;;;;;5031361;28;20867;-51
2021/08/09 11:12:09;;;;;;;3.17;1.47;;;30.70;33.60;;;;;;5030328;28;20505;-53
2021/08/09 11:15:11;;;;;;;1.77;1.20;;;30.60;33.30;;;;;;5030407;28;21069;-51
2021/08/09 11:17:36;;;;;;;2.80;0.90;;;30.60;33.70;;;;;;5029933;28;20482;-49
2021/08/09 11:20:23;;;;;;;1.43;1.30;;;30.50;33.40;;;;;;5043719;28;20439;-47
2021/08/09 11:23:07;;;;;;;1.87;1.20;;;30.50;33.50;;;;;;5028706;28;20276;-51
2021/08/09 11:25:36;;;;;;;2.73;1.20;;;30.60;34.20;;;;;;5031203;28;20448;-51
2021/08/09 11:28:04;;;;;;;1.70;1.20;;;30.60;33.90;;;;;;5029593;28;20533;-52
2021/08/09 11:30:34;;;;;;;3.60;2.37;;;30.70;33.80;;;;;;5030445;28;20943;-50
2021/08/09 11:32:59;;;;;;;2.60;1.40;;;30.80;33.00;;;;;;5028607;28;20497;-49
2021/08/09 11:35:25;;;;;;;2.67;1.40;;;30.70;33.40;;;;;;5032911;28;20515;-51
2021/08/09 11:37:54;;;;;;;1.90;1.30;;;30.70;33.40;;;;;;5029926;28;20200;-47
2021/08/09 11:40:40;;;;;;;2.80;1.60;;;30.80;33.80;;;;;;5030457;28;20282;-48
2021/08/09 11:43:07;;;;;;;1.53;1.37;;;31.10;33.90;;;;;;5029568;28;20459;-48
2021/08/09 11:45:32;;;;;;;1.60;1.50;;;31.10;33.20;;;;;;5030006;28;20443;-48
2021/08/09 11:47:58;;;;;;;2.07;1.77;;;31.20;32.40;;;;;;5029331;28;20486;-48
2021/08/09 11:50:24;;;;;;;2.60;1.47;;;31.20;31.90;;;;;;5029187;28;20653;-48
2021/08/09 11:52:51;;;;;;;1.87;1.53;;;31.20;32.40;;;;;;5028505;28;20661;-49
2021/08/09 11:55:23;;;;;;;3.00;1.30;;;31.00;32.70;;;;;;5029627;28;20201;-47
2021/08/09 11:57:49;;;;;;;2.63;1.80;;;30.90;32.40;;;;;;5028555;28;20861;-49
2021/08/09 12:00:16;;;;;;;1.43;1.33;;;30.80;33.10;;;;;;5021628;28;20876;-47
2021/08/09 12:03:21;;;;;;;2.43;1.73;;;30.70;33.30;;;;;;5029836;28;20519;-47
2021/08/09 12:05:47;;;;;;;1.50;1.40;;;30.70;33.80;;;;;;5006342;28;20506;-49
2021/08/09 12:08:13;;;;;;;1.50;1.40;;;30.50;35.10;;;;;;5009205;28;20500;-47
2021/08/09 12:10:39;;;;;;;1.97;1.80;;;30.60;36.20;;;;;;5020269;28;20271;-47
2021/08/09 12:13:22;;;;;;;1.60;1.50;;;30.70;36.60;;;;;;5031888;28;20299;-47
2021/08/09 12:16:06;;;;;;;2.80;1.10;;;30.90;36.40;;;;;;5030777;28;20485;-48
2021/08/09 12:18:31;;;;;;;2.13;1.27;;;31.00;36.60;;;;;;5027474;28;20485;-49
2021/08/09 12:21:12;;;;;;;2.20;1.60;;;31.10;35.40;;;;;;5031981;28;20427;-48
2021/08/09 12:23:56;;;;;;;1.30;1.20;;;31.10;34.20;;;;;;5030445;28;20560;-48
2021/08/09 12:26:27;;;;;;;2.70;1.20;;;31.30;34.60;;;;;;5030368;28;20458;-48
2021/08/09 12:28:55;;;;;;;2.40;1.80;;;31.50;35.30;;;;;;5034842;28;20483;-48
2021/08/09 12:31:45;;;;;;;2.17;1.53;;;31.70;34.50;;;;;;5031243;28;20535;-48
2021/08/09 12:34:11;;;;;;;2.97;1.60;;;31.90;34.20;;;;;;5029591;28;20520;-48
2021/08/09 12:36:38;;;;;;;1.77;1.30;;;32.10;32.80;;;;;;5031427;28;20420;-46
2021/08/09 12:39:05;;;;;;;1.77;1.20;;;32.10;33.30;;;;;;5033679;28;20451;-51
2021/08/09 12:41:33;;;;;;;1.80;1.70;;;32.10;32.90;;;;;;5033086;28;20436;-47
2021/08/09 12:44:00;;;;;;;1.40;1.27;;;32.00;32.90;;;;;;5033653;28;20798;-48
2021/08/09 12:46:26;;;;;;;1.87;1.30;;;32.10;33.20;;;;;;5030772;28;20970;-47
2021/08/09 12:48:53;;;;;;;1.60;1.50;;;32.10;32.90;;;;;;5033628;28;20833;-49
2021/08/09 12:51:19;;;;;;;2.63;1.73;;;32.10;31.90;;;;;;5032531;28;20478;-46
2021/08/09 12:53:46;;;;;;;2.60;1.30;;;32.10;32.20;;;;;;5032822;28;20423;-50
2021/08/09 12:56:11;;;;;;;2.90;1.50;;;32.10;32.30;;;;;;5028329;28;20440;-51